LEZL/SVQ METAR and TAF weather

Enter ICAO airport designator
Station Type Date Time Source
LEZL METAR 2020/01/20 21:30 UTC NOAA

LEZL 202130Z 05008KT CAVOK 11/04 Q1015 NOSIG


Station Type Date Time Source
LEZL Decoded METAR 2020/01/20 21:30 UTC NOAA

Sevilla / San Pablo, Spain (LEZL) 37-25N 005-54W 31M
Jan 20, 2020 - 04:30 PM EST / 2020.01.20 2130 UTC
Wind: from the NE (050 degrees) at 9 MPH (8 KT):0
Visibility: greater than 7 mile(s):0
Temperature: 51 F (11 C)
Dew Point: 39 F (4 C)
Relative Humidity: 61%
Pressure (altimeter): 29.97 in. Hg (1015 hPa)
ob: LEZL 202130Z 05008KT CAVOK 11/04 Q1015 NOSIG
cycle: 21

Station Type Date Time Source
LEZL TAF 2020/01/20 21:27 UTC NOAA

TAF LEZL 202000Z 2021/2121 04008KT 9999 FEW045 TX15/2115Z TN06/2107Z

Example: see airport list